Time;durP1;ratioP1;P1;durP2;ratioP2;P2;SDS_P1;SDS_P2;PMS_P1;PMS_P2;Temp;Humidity;BMP_temperature;BMP_pressure;BME280_temperature;BME280_humidity;BME280_pressure;Samples;Min_cycle;Max_cycle;Signal;HPM_P1;HPM_P2
2022/02/08 00:00:54;;;;;;;6.82;1.83;;;22.00;51.10;;;;;;21054554;28;20057;-48
2022/02/08 00:10:55;;;;;;;5.55;2.10;;;21.70;51.70;;;;;;21067294;28;20048;-48
2022/02/08 00:20:57;;;;;;;6.03;2.20;;;21.40;52.10;;;;;;21053415;28;20506;-47
2022/02/08 00:31:00;;;;;;;5.50;1.73;;;21.20;52.40;;;;;;21054387;28;20407;-47
2022/02/08 00:41:02;;;;;;;4.80;1.70;;;21.10;52.60;;;;;;21010371;28;20142;-47
2022/02/08 00:51:04;;;;;;;2.80;1.52;;;20.90;52.80;;;;;;21041472;28;20475;-47
2022/02/08 01:01:05;;;;;;;4.18;1.55;;;20.80;53.00;;;;;;21069603;28;20407;-47
2022/02/08 01:11:11;;;;;;;3.90;1.60;;;20.70;53.10;;;;;;21071841;28;20039;-47
2022/02/08 01:21:12;;;;;;;3.78;1.48;;;20.60;53.30;;;;;;21071779;28;20086;-47
2022/02/08 01:31:16;;;;;;;4.25;1.20;;;20.40;53.40;;;;;;21071706;28;20048;-47
2022/02/08 01:51:37;;;;;;;3.80;1.08;;;20.20;53.70;;;;;;21031081;28;20048;-47
2022/02/08 02:01:39;;;;;;;3.97;1.27;;;20.10;53.90;;;;;;21068994;28;20052;-47
2022/02/08 02:11:41;;;;;;;2.45;1.08;;;20.10;54.10;;;;;;21051434;28;20094;-47
2022/02/08 02:21:43;;;;;;;3.58;1.33;;;20.00;54.10;;;;;;21067575;28;20490;-47
2022/02/08 02:31:48;;;;;;;3.10;1.15;;;19.90;54.30;;;;;;21066524;28;20097;-49
2022/02/08 02:41:50;;;;;;;3.35;1.23;;;19.90;54.50;;;;;;21066554;28;20466;-48
2022/02/08 02:51:52;;;;;;;2.85;1.02;;;19.80;54.60;;;;;;21066026;28;20052;-47
2022/02/08 03:22:34;;;;;;;1.77;1.00;;;19.70;55.00;;;;;;21062238;28;20063;-45
2022/02/08 03:32:37;;;;;;;2.08;0.73;;;19.60;55.10;;;;;;21054604;28;20044;-49
2022/02/08 03:42:58;;;;;;;2.50;0.93;;;19.50;55.20;;;;;;21084281;28;20096;-49
2022/02/08 03:53:00;;;;;;;2.05;0.73;;;19.50;55.30;;;;;;21112844;28;20097;-47
2022/02/08 04:03:01;;;;;;;1.80;0.73;;;19.50;55.40;;;;;;21079971;28;20136;-47
2022/02/08 04:34:00;;;;;;;1.77;0.70;;;19.40;55.70;;;;;;21036014;28;20052;-47
2022/02/08 04:44:40;;;;;;;3.03;0.80;;;19.30;55.80;;;;;;21075989;28;20059;-48
2022/02/08 04:55:00;;;;;;;1.25;0.52;;;19.20;55.80;;;;;;21100697;28;20044;-47
2022/02/08 05:56:43;;;;;;;0.88;0.40;;;19.40;56.00;;;;;;21074837;28;20148;-48
2022/02/08 06:06:44;;;;;;;0.98;0.50;;;19.90;55.60;;;;;;21027913;28;20148;-48
2022/02/08 06:16:46;;;;;;;1.33;0.60;;;20.50;55.10;;;;;;21039155;28;20048;-52
2022/02/08 06:26:47;;;;;;;1.00;0.47;;;21.10;54.40;;;;;;21068255;28;20486;-50
2022/02/08 06:36:57;;;;;;;1.75;0.55;;;21.50;53.60;;;;;;21067401;28;20396;-50
2022/02/08 06:47:18;;;;;;;0.60;0.28;;;21.70;53.10;;;;;;20987377;28;20048;-47
2022/02/08 06:57:59;;;;;;;0.80;0.50;;;21.80;52.60;;;;;;21053529;28;20050;-47
2022/02/08 07:08:05;;;;;;;1.83;0.60;;;21.90;52.10;;;;;;21077098;28;20164;-47
2022/02/08 07:18:07;;;;;;;2.20;0.50;;;21.70;52.00;;;;;;21083264;28;20443;-47
2022/02/08 07:28:08;;;;;;;1.00;0.40;;;21.20;52.70;;;;;;21063737;28;20544;-46
2022/02/08 07:38:20;;;;;;;1.30;0.60;;;20.90;53.20;;;;;;21036413;28;20052;-46
2022/02/08 07:48:29;;;;;;;3.58;0.65;;;20.70;53.40;;;;;;21061135;28;20506;-46
2022/02/08 07:58:30;;;;;;;2.60;0.60;;;20.40;53.60;;;;;;21079599;28;20067;-45
2022/02/08 08:08:34;;;;;;;1.42;0.70;;;20.30;53.80;;;;;;21078116;28;20048;-45
2022/02/08 08:28:57;;;;;;;0.90;0.45;;;20.00;54.00;;;;;;21061081;28;20059;-46
2022/02/08 08:38:59;;;;;;;1.23;0.40;;;19.90;54.20;;;;;;21076135;28;20051;-46
2022/02/08 08:59:10;;;;;;;;;;;19.70;54.60;;;;;;21047902;28;20048;-46
2022/02/08 09:09:15;;;;;;;10.73;2.00;;;19.60;54.80;;;;;;21055932;28;19951;-45
2022/02/08 09:29:42;;;;;;;3.90;1.42;;;19.60;55.80;;;;;;21037481;28;20538;-47
2022/02/08 09:39:49;;;;;;;7.43;1.30;;;19.60;56.30;;;;;;21019400;28;20099;-44
2022/02/08 09:49:52;;;;;;;11.90;1.50;;;19.60;56.60;;;;;;21079181;28;20088;-47
2022/02/08 09:59:55;;;;;;;3.95;1.30;;;19.60;56.80;;;;;;21019111;28;20056;-49
2022/02/08 10:09:57;;;;;;;8.95;1.65;;;19.70;57.50;;;;;;20945133;28;20090;-49
2022/02/08 10:40:38;;;;;;;6.03;1.20;;;20.50;55.70;;;;;;20928292;28;20045;-50
2022/02/08 10:50:45;;;;;;;4.75;0.90;;;20.60;55.30;;;;;;20948858;28;20045;-47
2022/02/08 11:01:13;;;;;;;4.38;1.10;;;20.70;55.00;;;;;;20939786;28;20048;-48
2022/02/08 11:21:49;;;;;;;2.30;0.65;;;20.70;54.00;;;;;;20944452;28;20463;-51
2022/02/08 11:32:12;;;;;;;1.13;0.52;;;20.60;51.30;;;;;;20942071;28;20446;-48
2022/02/08 11:53:09;;;;;;;2.30;0.90;;;20.60;47.20;;;;;;20935055;28;20051;-51
2022/02/08 13:05:29;;;;;;;3.03;1.00;;;21.10;42.40;;;;;;20942637;28;20048;-48
2022/02/08 13:17:01;;;;;;;3.00;1.15;;;21.00;42.10;;;;;;20933895;28;20098;-48
2022/02/08 14:07:30;;;;;;;6.15;1.40;;;20.70;46.20;;;;;;20944508;28;20488;-52
2022/02/08 14:17:57;;;;;;;4.43;1.60;;;20.70;46.50;;;;;;20919167;28;20099;-52
2022/02/08 15:09:03;;;;;;;4.10;1.80;;;20.30;48.30;;;;;;20917638;28;20041;-51
2022/02/08 15:19:05;;;;;;;6.25;2.13;;;20.20;48.50;;;;;;20902419;28;20064;-51
2022/02/08 15:29:06;;;;;;;3.83;1.75;;;20.20;48.80;;;;;;20920217;28;20376;-51
2022/02/08 15:39:09;;;;;;;4.50;1.77;;;20.10;48.90;;;;;;21000557;28;20052;-52
2022/02/08 15:49:11;;;;;;;6.82;2.60;;;20.10;49.20;;;;;;20995537;28;20601;-53
2022/02/08 17:01:27;;;;;;;7.43;2.67;;;19.80;50.20;;;;;;20995048;28;20140;-52
2022/02/08 17:52:55;;;;;;;5.60;2.53;;;19.80;50.50;;;;;;20929363;28;20080;-48
2022/02/08 18:02:57;;;;;;;4.97;2.35;;;19.80;50.40;;;;;;20982512;28;20503;-49
2022/02/08 18:13:01;;;;;;;8.27;2.35;;;19.70;50.50;;;;;;20906242;28;20053;-47
2022/02/08 18:23:41;;;;;;;6.43;2.10;;;19.70;50.60;;;;;;20906081;28;20472;-48
2022/02/08 19:24:58;;;;;;;8.63;4.90;;;20.30;48.40;;;;;;20913561;28;20049;-48
2022/02/08 19:34:59;;;;;;;14.93;6.68;;;20.70;47.10;;;;;;20933288;28;20068;-48
2022/02/08 19:45:12;;;;;;;14.70;6.43;;;21.20;46.10;;;;;;20943497;28;20154;-48
2022/02/08 19:55:57;;;;;;;9.70;5.43;;;21.40;44.60;;;;;;20932345;28;20048;-48
2022/02/08 20:05:43;;;;;;;13.52;6.60;;;21.40;43.80;;;;;;20923302;28;20131;-47
2022/02/08 20:15:45;;;;;;;12.13;6.03;;;21.50;43.60;;;;;;20940061;28;20143;-47
2022/02/08 20:25:50;;;;;;;9.88;5.75;;;21.50;44.20;;;;;;20974255;28;20502;-47
2022/02/08 20:35:51;;;;;;;10.88;5.50;;;21.40;44.90;;;;;;20981998;28;20460;-47
2022/02/08 20:45:54;;;;;;;14.00;5.20;;;21.30;45.60;;;;;;20923454;28;20061;-46
2022/02/08 20:56:08;;;;;;;11.02;4.47;;;21.30;45.90;;;;;;20951449;28;20076;-46
2022/02/08 21:06:19;;;;;;;9.18;4.80;;;21.20;46.60;;;;;;20946093;28;20048;-54
2022/02/08 21:16:27;;;;;;;13.73;5.82;;;21.00;47.10;;;;;;20960790;28;20140;-51
2022/02/08 21:26:33;;;;;;;15.63;5.38;;;20.70;46.10;;;;;;20947607;28;20186;-52
2022/02/08 21:57:05;;;;;;;14.03;6.43;;;20.20;48.40;;;;;;20952654;28;20411;-52
2022/02/08 22:07:13;;;;;;;20.05;5.07;;;20.20;48.90;;;;;;20947552;28;20092;-53
2022/02/08 22:37:26;;;;;;;8.90;3.80;;;20.00;49.70;;;;;;20943448;28;20060;-52
2022/02/08 22:47:28;;;;;;;9.40;3.90;;;20.30;49.50;;;;;;20943613;28;20053;-52
2022/02/08 22:57:30;;;;;;;11.63;4.25;;;20.70;49.00;;;;;;20949928;28;20051;-53
2022/02/08 23:07:31;;;;;;;5.25;3.13;;;21.20;48.50;;;;;;20953147;28;20037;-53
2022/02/08 23:38:09;;;;;;;7.00;3.15;;;22.60;47.00;;;;;;20956428;28;20056;-53
2022/02/08 23:48:16;;;;;;;3.65;2.47;;;23.00;46.80;;;;;;20958066;28;20048;-53
2022/02/08 23:58:17;;;;;;;5.50;2.53;;;23.20;46.50;;;;;;20980499;28;20082;-52
